MSC Vega — D5BE4 — position and weather

sailwx.info

Track history (hours):
 
Tides and Currents Weather Stations Pressure Air Temp Water Temp Dewpoint Dewpoint Depression Visibility Wind Speed Wind Dir Waves Ship Positions

MSC Vega

Last reported at 2016-Apr-26 23:00 UTC. Time now 2016-Apr-29 14:01 UTC.
Position N 12°18' E 046°30'.

Length 366 m; draft 15.2 m.

Type: Ship (hazmat cat A). MMSI: 636015506.

Wind from 050 at 13 knots

Barometer 1010.0 mb
Air temperature 28.1 ° C
Visibility: greater than 10.8 NM
Dewpoint 26.0 ° C
Water temperature 34.5 ° C

Date/timePositionNaut miles runAvg speedWind from/ knotsBaromVisibWave heightAir tempDewpointWater temp
2016-Apr-26 23:00N 12°18' E 046°30'   050 / 131010.010.8 28.126.034.5
2016-Apr-22 04:09N 31°12' E 032°21'1 0.2
2016-Apr-22 00:28N 31°12' E 032°21'0 0.0
2016-Apr-21 23:19N 31°12' E 032°21'0 0.0
2016-Apr-21 22:25N 31°12' E 032°21'0 0.0
2016-Apr-21 21:31N 31°12' E 032°21'0 0.0
2016-Apr-21 19:25N 31°12' E 032°21'0 0.0
2016-Apr-21 18:31N 31°12' E 032°21'0 0.0
2016-Apr-21 17:31N 31°12' E 032°21'0 0.0
2016-Apr-21 16:31N 31°12' E 032°21'0 0.0
2016-Apr-21 12:28N 31°12' E 032°21'15 7.6
2016-Apr-21 10:32N 31°26' E 032°25'7218.2
2016-Apr-21 06:33N 32°03' E 031°12'79922.0
2016-Apr-19 18:15N 37°33' E 016°26'2221.6
2016-Apr-19 17:13N 37°42' E 016°00'1522.1
2016-Apr-19 16:33N 37°48' E 015°43'2020.4
2016-Apr-19 15:34N 38°07' E 015°35'1615.6
2016-Apr-19 14:34N 38°21' E 015°43'1010.2
2016-Apr-19 13:33N 38°27' E 015°54'0 0.4
2016-Apr-19 12:33N 38°27' E 015°54'0 0.0
2016-Apr-19 11:30N 38°27' E 015°54'0 0.0
2016-Apr-19 10:30N 38°27' E 015°54'0 0.0
2016-Apr-19 09:33N 38°27' E 015°54'0 0.0
2016-Apr-19 08:24N 38°27' E 015°54'0 0.0
2016-Apr-19 07:24N 38°27' E 015°54'0 0.0
2016-Apr-19 06:33N 38°27' E 015°54'0 0.0
2016-Apr-19 05:33N 38°27' E 015°54'0 0.0
2016-Apr-19 04:33N 38°27' E 015°54'0 0.0
2016-Apr-19 03:30N 38°27' E 015°54'0 0.0
2016-Apr-19 02:21N 38°27' E 015°54'0 0.0
2016-Apr-19 01:30N 38°27' E 015°54'0 0.0
2016-Apr-19 00:30N 38°27' E 015°54'0 0.0
2016-Apr-18 23:30N 38°27' E 015°54'0 0.0
2016-Apr-18 22:30N 38°27' E 015°54'0 0.0
2016-Apr-18 21:33N 38°27' E 015°54'0 0.0
2016-Apr-18 20:33N 38°27' E 015°54'0 0.0
2016-Apr-18 19:33N 38°27' E 015°54'0 0.0
2016-Apr-18 18:30N 38°27' E 015°54'0 0.0
2016-Apr-18 17:33N 38°27' E 015°54'0 0.0
2016-Apr-18 16:33N 38°27' E 015°54'0 0.0
2016-Apr-18 15:30N 38°27' E 015°54'0 0.0
2016-Apr-18 14:30N 38°27' E 015°54'0 0.0
2016-Apr-18 13:30N 38°27' E 015°54'0 0.0
2016-Apr-18 12:33N 38°27' E 015°54'0 0.0
2016-Apr-18 11:30N 38°27' E 015°54'0 0.0
2016-Apr-18 10:33N 38°27' E 015°54'0 0.0
2016-Apr-18 09:30N 38°27' E 015°54'0 0.0
2016-Apr-18 08:27N 38°27' E 015°54'1 1.2
2016-Apr-18 07:33N 38°27' E 015°53'6 5.7
2016-Apr-18 06:34N 38°30' E 015°48'1010.5
2016-Apr-18 05:34N 38°39' E 015°40'1010.2
2016-Apr-18 04:33N 38°48' E 015°33'1310.7
2016-Apr-18 03:23N 38°58' E 015°24'910.3
2016-Apr-18 02:31N 39°05' E 015°17'1010.4
2016-Apr-18 01:32N 39°14' E 015°11'1511.2
2016-Apr-18 00:13N 39°26' E 015°00'1810.9
2016-Apr-17 22:33N 39°42' E 014°48'1110.9
2016-Apr-17 21:33N 39°51' E 014°40'1210.9
2016-Apr-17 20:30N 40°01' E 014°32'1111.0
2016-Apr-17 19:30N 40°10' E 014°24'9 9.0
2016-Apr-17 18:33N 40°17' E 014°19'9 8.8
2016-Apr-17 17:33N 40°24' E 014°12'8 8.4
2016-Apr-17 16:34N 40°32' E 014°07'9 8.8
2016-Apr-17 15:33N 40°40' E 014°11'9 8.7
2016-Apr-17 14:33N 40°49' E 014°15'1 0.5
2016-Apr-17 13:28N 40°49' E 014°15'0 0.0
2016-Apr-17 12:22N 40°49' E 014°15'0 0.0
2016-Apr-17 11:28N 40°49' E 014°15'0 0.0
2016-Apr-17 10:17N 40°49' E 014°15'0 0.0
2016-Apr-17 09:28N 40°49' E 014°15'0 0.0
2016-Apr-17 08:22N 40°49' E 014°15'2 2.0
2016-Apr-17 07:33N 40°47' E 014°15'1615.7
2016-Apr-17 06:33N 40°37' E 013°60'1919.2
2016-Apr-17 05:33N 40°36' E 013°35'2019.9
2016-Apr-17 04:33N 40°38' E 013°08'2020.4
2016-Apr-17 03:33N 40°47' E 012°44'2120.8
2016-Apr-17 02:32N 40°60' E 012°22'2020.3
2016-Apr-17 01:32N 41°12' E 011°60'  
Track history (hours):
 
Tides and Currents Weather Stations Pressure Air Temp Water Temp Dewpoint Dewpoint Depression Visibility Wind Speed Wind Dir Waves Ship Positions

MSC Vega

Last reported at 2016-Apr-26 23:00 UTC. Time now 2016-Apr-29 14:01 UTC.
Position N 12°18' E 046°30'.

Length 366 m; draft 15.2 m.

Type: Ship (hazmat cat A). MMSI: 636015506.

Wind from 050 at 13 knots

Barometer 1010.0 mb
Air temperature 28.1 ° C
Visibility: greater than 10.8 NM
Dewpoint 26.0 ° C
Water temperature 34.5 ° C

Date/timePositionNaut miles runAvg speedWind from/ knotsBaromVisibWave heightAir tempDewpointWater temp
2016-Apr-26 23:00N 12°18' E 046°30'   050 / 131010.010.8 28.126.034.5
2016-Apr-22 04:09N 31°12' E 032°21'1 0.2
2016-Apr-22 00:28N 31°12' E 032°21'0 0.0
2016-Apr-21 23:19N 31°12' E 032°21'0 0.0
2016-Apr-21 22:25N 31°12' E 032°21'0 0.0
2016-Apr-21 21:31N 31°12' E 032°21'0 0.0
2016-Apr-21 19:25N 31°12' E 032°21'0 0.0
2016-Apr-21 18:31N 31°12' E 032°21'0 0.0
2016-Apr-21 17:31N 31°12' E 032°21'0 0.0
2016-Apr-21 16:31N 31°12' E 032°21'0 0.0
2016-Apr-21 12:28N 31°12' E 032°21'15 7.6
2016-Apr-21 10:32N 31°26' E 032°25'7218.2
2016-Apr-21 06:33N 32°03' E 031°12'79922.0
2016-Apr-19 18:15N 37°33' E 016°26'2221.6
2016-Apr-19 17:13N 37°42' E 016°00'1522.1
2016-Apr-19 16:33N 37°48' E 015°43'2020.4
2016-Apr-19 15:34N 38°07' E 015°35'1615.6
2016-Apr-19 14:34N 38°21' E 015°43'1010.2
2016-Apr-19 13:33N 38°27' E 015°54'0 0.4
2016-Apr-19 12:33N 38°27' E 015°54'0 0.0
2016-Apr-19 11:30N 38°27' E 015°54'0 0.0
2016-Apr-19 10:30N 38°27' E 015°54'0 0.0
2016-Apr-19 09:33N 38°27' E 015°54'0 0.0
2016-Apr-19 08:24N 38°27' E 015°54'0 0.0
2016-Apr-19 07:24N 38°27' E 015°54'0 0.0
2016-Apr-19 06:33N 38°27' E 015°54'0 0.0
2016-Apr-19 05:33N 38°27' E 015°54'0 0.0
2016-Apr-19 04:33N 38°27' E 015°54'0 0.0
2016-Apr-19 03:30N 38°27' E 015°54'0 0.0
2016-Apr-19 02:21N 38°27' E 015°54'0 0.0
2016-Apr-19 01:30N 38°27' E 015°54'0 0.0
2016-Apr-19 00:30N 38°27' E 015°54'0 0.0
2016-Apr-18 23:30N 38°27' E 015°54'0 0.0
2016-Apr-18 22:30N 38°27' E 015°54'0 0.0
2016-Apr-18 21:33N 38°27' E 015°54'0 0.0
2016-Apr-18 20:33N 38°27' E 015°54'0 0.0
2016-Apr-18 19:33N 38°27' E 015°54'0 0.0
2016-Apr-18 18:30N 38°27' E 015°54'0 0.0
2016-Apr-18 17:33N 38°27' E 015°54'0 0.0
2016-Apr-18 16:33N 38°27' E 015°54'0 0.0
2016-Apr-18 15:30N 38°27' E 015°54'0 0.0
2016-Apr-18 14:30N 38°27' E 015°54'0 0.0
2016-Apr-18 13:30N 38°27' E 015°54'0 0.0
2016-Apr-18 12:33N 38°27' E 015°54'0 0.0
2016-Apr-18 11:30N 38°27' E 015°54'0 0.0
2016-Apr-18 10:33N 38°27' E 015°54'0 0.0
2016-Apr-18 09:30N 38°27' E 015°54'0 0.0
2016-Apr-18 08:27N 38°27' E 015°54'1 1.2
2016-Apr-18 07:33N 38°27' E 015°53'6 5.7
2016-Apr-18 06:34N 38°30' E 015°48'1010.5
2016-Apr-18 05:34N 38°39' E 015°40'1010.2
2016-Apr-18 04:33N 38°48' E 015°33'1310.7
2016-Apr-18 03:23N 38°58' E 015°24'910.3
2016-Apr-18 02:31N 39°05' E 015°17'1010.4
2016-Apr-18 01:32N 39°14' E 015°11'1511.2
2016-Apr-18 00:13N 39°26' E 015°00'1810.9
2016-Apr-17 22:33N 39°42' E 014°48'1110.9
2016-Apr-17 21:33N 39°51' E 014°40'1210.9
2016-Apr-17 20:30N 40°01' E 014°32'1111.0
2016-Apr-17 19:30N 40°10' E 014°24'9 9.0
2016-Apr-17 18:33N 40°17' E 014°19'9 8.8
2016-Apr-17 17:33N 40°24' E 014°12'8 8.4
2016-Apr-17 16:34N 40°32' E 014°07'9 8.8
2016-Apr-17 15:33N 40°40' E 014°11'9 8.7
2016-Apr-17 14:33N 40°49' E 014°15'1 0.5
2016-Apr-17 13:28N 40°49' E 014°15'0 0.0
2016-Apr-17 12:22N 40°49' E 014°15'0 0.0
2016-Apr-17 11:28N 40°49' E 014°15'0 0.0
2016-Apr-17 10:17N 40°49' E 014°15'0 0.0
2016-Apr-17 09:28N 40°49' E 014°15'0 0.0
2016-Apr-17 08:22N 40°49' E 014°15'2 2.0
2016-Apr-17 07:33N 40°47' E 014°15'1615.7
2016-Apr-17 06:33N 40°37' E 013°60'1919.2
2016-Apr-17 05:33N 40°36' E 013°35'2019.9
2016-Apr-17 04:33N 40°38' E 013°08'2020.4
2016-Apr-17 03:33N 40°47' E 012°44'2120.8
2016-Apr-17 02:32N 40°60' E 012°22'2020.3
2016-Apr-17 01:32N 41°12' E 011°60'  

Dump ship's entire track history